Terminal Aerodrome Forecast
Issued by NWS

Current Version | Previous Version | Text Only | Print | Product List | Glossary Off
Versions: 1 2 3 4 5 6 7 8 9 10 11 12 13 14 15 16 17 18 19 20 21 22

000
FTUS44 KSJT 030500
TAFSOA
TAF
KSOA 030539Z 0306/0406 11005KT 1SM BR OVC002
     FM031800 19012KT P6SM BKN012
     FM031900 18010KT P6SM SCT020 BKN250
     FM040500 17003KT P6SM BKN012=

USA.gov is the U.S. government's official web portal to all federal, state and local government web resources and services.